Terminal Aerodrome Forecast
Issued by NWS

Home | Current Version | Previous Version | Text Only | Print | Product List | Glossary On
Versions: 1 2 3 4 5 6 7 8 9 10 11 12 13 14 15 16 17 18 19 20 21
634
FTUS43 KAPX 300520
TAFPLN
TAF
KPLN 300520Z 3006/3106 09006KT P6SM OVC120
     FM301500 10011G20KT P6SM VCSH BKN050 OVC100
     FM302100 08013G22KT 4SM -RASN SCT008 OVC015=

USA.gov is the U.S. government's official web portal to all federal, state and local government web resources and services.